aviador You're here:

KMYR Decoded Metar

MYRTLE BEACH in SC, USA
Report Time2018-07-18 22:56:00
UTC Time2018-07-18 23:43:42
Flight Rules vfr VFR
Wind030° at 03 kt
W.Decomp.*RWY 36: 2.4 kt HW 1.8 kt RCW
W.Rank030° ranks 8
Current wind is below 030° avg. (9.1)
Visibility9999 m
Phenomena:N/A
Clouds:Few 022 Hf
Expected CloudBase > 800 ft AGL from Temp-Dew spread
CeilingNone
Temp26°C (ISA +11)
Dew Point24°C (89% RH)
QNH1013 hPa
Density Alt1,693 ft
Elevation26 ft
Report Wrong Elevation
Raw Report
METAR KMYR 182256Z 03003KT 10SM FEW022 26/24 A2992 RMK AO2 LTG DSNT
SE AND S SLP131 T02610244=

Extra information for KMYR:More info

Metar Taf Metar & Taf Last 4 Metars F.Rules Stats Wind Profile Meteogram Temp Stats Airport Information Weather charts Add Link Nearby VenuesMetar ALERT Operation Metar Decoded Social comments

AIRNAV info for KMYR